Time;durP1;ratioP1;P1;durP2;ratioP2;P2;SDS_P1;SDS_P2;PMS_P1;PMS_P2;Temp;Humidity;BMP_temperature;BMP_pressure;BME280_temperature;BME280_humidity;BME280_pressure;Samples;Min_cycle;Max_cycle;Signal;HPM_P1;HPM_P2
2022/11/12 00:00:51;;;;;;;;;;;;;;;18.85;65.52;100159.47;2106312;27;19927;-45
2022/11/12 00:01:53;;;;;;;;;;;;;;;18.85;65.60;100153.25;2106564;27;19928;-46
2022/11/12 00:02:53;;;;;;;;;;;;;;;18.84;65.61;100157.81;2109178;28;19920;-46
2022/11/12 00:03:56;;;;;;;;;;;;;;;18.85;65.60;100156.78;2109302;28;20013;-46
2022/11/12 00:04:56;;;;;;;;;;;;;;;18.84;65.51;100157.81;2106204;27;19923;-48
2022/11/12 00:05:59;;;;;;;;;;;;;;;18.82;65.83;100159.81;2108020;27;19924;-46
2022/11/12 00:07:00;;;;;;;;;;;;;;;18.82;65.46;100157.13;2094174;28;19935;-46
2022/11/12 00:08:02;;;;;;;;;;;;;;;18.84;65.71;100154.28;2093882;28;19924;-46
2022/11/12 00:09:02;;;;;;;;;;;;;;;18.82;65.89;100159.81;2098634;28;19927;-48
2022/11/12 00:10:05;;;;;;;;;;;;;;;18.82;65.59;100162.50;2101915;28;19920;-46
2022/11/12 00:11:06;;;;;;;;;;;;;;;18.83;65.81;100155.28;2097125;28;19928;-46
2022/11/12 00:12:07;;;;;;;;;;;;;;;18.81;65.61;100158.16;2096073;28;19920;-48
2022/11/12 00:13:08;;;;;;;;;;;;;;;18.82;65.81;100156.28;2095417;28;19923;-47
2022/11/12 00:14:09;;;;;;;;;;;;;;;18.82;65.79;100153.59;2101610;28;20599;-47
2022/11/12 00:15:10;;;;;;;;;;;;;;;18.81;65.56;100160.84;2097838;28;19931;-48
2022/11/12 00:16:12;;;;;;;;;;;;;;;18.80;65.61;100155.59;2096821;27;20500;-46
2022/11/12 00:17:12;;;;;;;;;;;;;;;18.80;65.57;100159.13;2099921;28;19935;-47
2022/11/12 00:18:32;;;;;;;;;;;;;;;18.78;65.76;100153.09;2105219;28;19920;-45
2022/11/12 00:19:33;;;;;;;;;;;;;;;18.78;65.68;100153.09;2099498;28;19930;-47
2022/11/12 00:20:34;;;;;;;;;;;;;;;18.79;65.56;100149.41;2101972;28;19938;-47
2022/11/12 00:21:37;;;;;;;;;;;;;;;18.78;65.56;100152.25;2100184;28;19924;-47
2022/11/12 00:22:38;;;;;;;;;;;;;;;18.77;65.77;100148.72;2100089;28;19920;-45
2022/11/12 00:23:39;;;;;;;;;;;;;;;18.75;65.71;100143.53;2094143;28;19927;-46
2022/11/12 00:24:39;;;;;;;;;;;;;;;18.75;65.77;100148.91;2098660;28;19935;-45
2022/11/12 00:25:41;;;;;;;;;;;;;;;18.75;65.64;100142.69;2095795;28;20327;-46
2022/11/12 00:26:41;;;;;;;;;;;;;;;18.74;65.88;100147.19;2099830;28;19928;-45
2022/11/12 00:27:43;;;;;;;;;;;;;;;18.75;65.69;100137.31;2096078;28;19927;-46
2022/11/12 00:28:43;;;;;;;;;;;;;;;18.73;65.72;100142.81;2098038;28;19928;-48
2022/11/12 00:29:45;;;;;;;;;;;;;;;18.75;65.69;100148.06;2097817;28;20519;-46
2022/11/12 00:30:45;;;;;;;;;;;;;;;18.75;65.46;100145.38;2098344;28;19928;-45
2022/11/12 00:31:47;;;;;;;;;;;;;;;18.72;65.67;100133.09;2093317;28;19954;-46
2022/11/12 00:32:47;;;;;;;;;;;;;;;18.73;65.58;100142.81;2098180;28;19924;-47
2022/11/12 00:33:49;;;;;;;;;;;;;;;18.72;65.65;100142.97;2098057;28;19920;-47
2022/11/12 00:34:49;;;;;;;;;;;;;;;18.73;65.65;100139.28;2097012;28;19927;-45
2022/11/12 00:35:51;;;;;;;;;;;;;;;18.74;65.74;100138.31;2097386;27;19921;-46
2022/11/12 00:36:53;;;;;;;;;;;;;;;18.74;65.84;100138.31;2097103;28;19920;-48
2022/11/12 00:37:55;;;;;;;;;;;;;;;18.73;65.84;100128.53;2098980;28;19923;-46
2022/11/12 00:38:56;;;;;;;;;;;;;;;18.73;65.84;100137.44;2099682;28;19935;-47
2022/11/12 00:39:57;;;;;;;;;;;;;;;18.71;65.80;100131.38;2097837;27;20642;-46
2022/11/12 00:40:58;;;;;;;;;;;;;;;18.71;65.86;100125.19;2095399;27;19924;-47
2022/11/12 00:42:00;;;;;;;;;;;;;;;18.70;65.74;100124.34;2096107;28;20365;-48
2022/11/12 00:43:01;;;;;;;;;;;;;;;18.68;65.97;100126.34;2095354;28;20397;-49
2022/11/12 00:44:02;;;;;;;;;;;;;;;18.69;65.77;100127.19;2095761;28;20347;-46
2022/11/12 00:45:03;;;;;;;;;;;;;;;18.68;65.77;100126.34;2096450;28;19920;-47
2022/11/12 00:46:04;;;;;;;;;;;;;;;18.67;65.73;100123.84;2096064;28;19927;-47
2022/11/12 00:47:05;;;;;;;;;;;;;;;18.67;65.89;100123.84;2096776;28;20515;-48
2022/11/12 00:48:06;;;;;;;;;;;;;;;18.69;66.07;100121.81;2097971;28;19931;-45
2022/11/12 00:49:08;;;;;;;;;;;;;;;18.67;65.78;100123.84;2093895;28;20034;-47
2022/11/12 00:50:08;;;;;;;;;;;;;;;18.66;65.97;100122.16;2099572;28;19927;-46
2022/11/12 00:51:10;;;;;;;;;;;;;;;18.65;65.81;100123.16;2095504;28;19946;-47
2022/11/12 00:52:12;;;;;;;;;;;;;;;18.65;65.78;100126.69;2096052;28;19935;-47
2022/11/12 00:53:13;;;;;;;;;;;;;;;18.66;65.98;100127.53;2094852;27;20534;-46
2022/11/12 00:54:14;;;;;;;;;;;;;;;18.64;65.96;100124.19;2097822;28;19927;-46
2022/11/12 00:55:15;;;;;;;;;;;;;;;18.65;66.00;100120.47;2096110;28;20025;-49
2022/11/12 00:56:16;;;;;;;;;;;;;;;18.64;65.59;100125.03;2096608;28;19924;-46
2022/11/12 00:57:18;;;;;;;;;;;;;;;18.65;66.10;100125.84;2099208;28;19923;-46
2022/11/12 00:58:18;;;;;;;;;;;;;;;18.63;66.02;100125.16;2099086;28;19935;-45
2022/11/12 00:59:20;;;;;;;;;;;;;;;18.61;65.96;100122.66;2096280;28;20386;-46
2022/11/12 01:00:20;;;;;;;;;;;;;;;18.62;66.04;100123.50;2099285;27;19951;-47
2022/11/12 01:01:22;;;;;;;;;;;;;;;18.62;65.94;100115.44;2097079;28;20129;-46
2022/11/12 01:02:22;;;;;;;;;;;;;;;18.62;66.01;100123.50;2096008;28;19928;-46
2022/11/12 01:03:24;;;;;;;;;;;;;;;18.60;65.85;100120.97;2101463;28;19972;-47
2022/11/12 01:04:24;;;;;;;;;;;;;;;18.59;65.91;100123.84;2097734;28;19924;-47
2022/11/12 01:05:26;;;;;;;;;;;;;;;18.60;66.06;100120.97;2095554;28;19920;-46
2022/11/12 01:06:26;;;;;;;;;;;;;;;18.59;65.92;100116.63;2096760;28;20281;-46
2022/11/12 01:07:29;;;;;;;;;;;;;;;18.60;65.83;100120.13;2097089;28;19934;-48
2022/11/12 01:08:30;;;;;;;;;;;;;;;18.58;65.82;100128.34;2097148;28;19920;-45
2022/11/12 01:09:31;;;;;;;;;;;;;;;18.57;66.06;100120.47;2096867;28;19947;-47
2022/11/12 01:10:34;;;;;;;;;;;;;;;18.57;66.10;100117.78;2101319;28;20545;-47
2022/11/12 01:11:36;;;;;;;;;;;;;;;18.56;66.11;100121.50;2094881;28;19930;-47
2022/11/12 01:12:36;;;;;;;;;;;;;;;18.53;66.12;100118.13;2095500;28;20348;-47
2022/11/12 01:13:38;;;;;;;;;;;;;;;18.54;66.10;100114.41;2095844;28;19920;-45
2022/11/12 01:14:39;;;;;;;;;;;;;;;18.57;66.10;100120.47;2098669;28;20529;-47
2022/11/12 01:15:41;;;;;;;;;;;;;;;18.56;66.07;100110.75;2098002;28;19931;-46
2022/11/12 01:16:42;;;;;;;;;;;;;;;18.54;66.10;100111.72;2100922;28;19965;-46
2022/11/12 01:17:43;;;;;;;;;;;;;;;18.55;66.11;100107.19;2095978;28;19966;-47
2022/11/12 01:18:44;;;;;;;;;;;;;;;18.53;66.05;100110.06;2097481;28;20053;-45
2022/11/12 01:19:46;;;;;;;;;;;;;;;18.55;66.10;100112.56;2096620;28;20002;-46
2022/11/12 01:20:46;;;;;;;;;;;;;;;18.52;66.16;100104.84;2096187;28;19920;-47
2022/11/12 01:21:48;;;;;;;;;;;;;;;18.53;66.01;100112.75;2095151;28;19920;-47
2022/11/12 01:22:49;;;;;;;;;;;;;;;18.52;66.17;100112.91;2097431;28;19919;-46
2022/11/12 01:23:51;;;;;;;;;;;;;;;18.51;65.95;100111.22;2098509;27;19928;-47
2022/11/12 01:24:52;;;;;;;;;;;;;;;18.51;66.22;100112.06;2098849;28;19924;-45
2022/11/12 01:25:53;;;;;;;;;;;;;;;18.50;66.27;100107.72;2095684;28;19981;-46
2022/11/12 01:26:53;;;;;;;;;;;;;;;18.50;65.89;100114.94;2094647;28;20401;-47
2022/11/12 01:27:55;;;;;;;;;;;;;;;18.49;65.90;100111.38;2099010;28;19928;-47
2022/11/12 01:28:56;;;;;;;;;;;;;;;18.48;66.08;100115.09;2096820;28;20152;-46
2022/11/12 01:29:58;;;;;;;;;;;;;;;18.47;66.25;100117.94;2098894;28;19931;-46
2022/11/12 01:31:08;;;;;;;;;;;;;;;18.46;66.21;100108.19;2097130;28;20528;-47
2022/11/12 01:32:09;;;;;;;;;;;;;;;18.48;66.11;100108.88;2092678;28;19924;-47
2022/11/12 01:33:10;;;;;;;;;;;;;;;18.44;66.10;100104.84;2089170;28;19928;-48
2022/11/12 01:34:11;;;;;;;;;;;;;;;18.45;66.26;100104.69;2089151;28;19924;-47
2022/11/12 01:35:12;;;;;;;;;;;;;;;18.43;66.10;100101.31;2088014;28;19950;-47
2022/11/12 01:36:14;;;;;;;;;;;;;;;18.45;66.05;100102.00;2089667;28;19934;-46
2022/11/12 01:37:15;;;;;;;;;;;;;;;18.48;66.34;100106.19;2088186;28;20542;-46
2022/11/12 01:38:18;;;;;;;;;;;;;;;18.45;65.98;100103.84;2088907;28;20020;-48
2022/11/12 01:39:18;;;;;;;;;;;;;;;18.46;66.25;100100.16;2085879;28;20436;-47
2022/11/12 01:40:20;;;;;;;;;;;;;;;18.45;66.25;100103.84;2089187;27;20453;-46
2022/11/12 01:41:22;;;;;;;;;;;;;;;18.43;66.27;100101.31;2089428;28;19924;-47
2022/11/12 01:42:25;;;;;;;;;;;;;;;18.43;66.19;100105.84;2085318;28;19962;-47
2022/11/12 01:43:26;;;;;;;;;;;;;;;18.43;66.41;100100.47;2088118;28;19935;-46
2022/11/12 01:44:30;;;;;;;;;;;;;;;18.42;66.20;100093.44;2087876;28;20503;-47
2022/11/12 01:45:30;;;;;;;;;;;;;;;18.42;66.07;100093.44;2089863;28;19931;-46
2022/11/12 01:46:34;;;;;;;;;;;;;;;18.40;66.22;100096.28;2086976;28;19935;-45
2022/11/12 01:47:35;;;;;;;;;;;;;;;18.40;66.36;100090.06;2089726;28;19928;-46
2022/11/12 01:48:38;;;;;;;;;;;;;;;18.41;66.08;100095.25;2091229;28;19950;-46
2022/11/12 01:49:41;;;;;;;;;;;;;;;18.38;66.17;100092.06;2090646;28;19924;-46
2022/11/12 01:50:42;;;;;;;;;;;;;;;18.37;66.19;100085.03;2090051;28;19963;-45
2022/11/12 01:51:44;;;;;;;;;;;;;;;18.37;66.48;100091.25;2087385;28;19932;-48
2022/11/12 01:52:48;;;;;;;;;;;;;;;18.39;66.32;100094.59;2089025;28;19976;-45
2022/11/12 01:53:51;;;;;;;;;;;;;;;18.39;66.31;100083.88;2087799;28;19920;-46
2022/11/12 01:54:55;;;;;;;;;;;;;;;18.37;66.15;100088.56;2087835;28;19973;-47
2022/11/12 01:55:57;;;;;;;;;;;;;;;18.36;66.34;100089.56;2087564;28;19924;-46
2022/11/12 01:56:59;;;;;;;;;;;;;;;18.37;66.25;100083.19;2089857;28;19924;-45
2022/11/12 01:58:04;;;;;;;;;;;;;;;18.37;66.33;100082.34;2095735;28;19924;-45
2022/11/12 01:59:09;;;;;;;;;;;;;;;18.36;66.17;100084.19;2098464;28;19920;-46
2022/11/12 02:00:10;;;;;;;;;;;;;;;18.37;66.30;100083.19;2098689;28;19923;-44
2022/11/12 02:01:12;;;;;;;;;;;;;;;18.36;66.17;100083.34;2096603;28;20007;-47
2022/11/12 02:02:12;;;;;;;;;;;;;;;18.36;66.10;100086.88;2097837;28;20408;-45
2022/11/12 02:03:18;;;;;;;;;;;;;;;18.35;66.15;100084.34;2106942;28;20022;-46
2022/11/12 02:04:19;;;;;;;;;;;;;;;18.33;66.38;100081.84;2106355;28;19931;-45
2022/11/12 02:05:22;;;;;;;;;;;;;;;18.34;66.24;100075.47;2104170;28;19926;-46
2022/11/12 02:06:23;;;;;;;;;;;;;;;18.31;66.32;100071.25;2098535;27;20333;-46
2022/11/12 02:07:25;;;;;;;;;;;;;;;18.31;66.51;100075.78;2099295;28;19919;-46
2022/11/12 02:08:26;;;;;;;;;;;;;;;18.29;66.43;100073.25;2097466;27;19935;-46
2022/11/12 02:09:30;;;;;;;;;;;;;;;18.31;66.24;100070.44;2100238;28;20510;-46
2022/11/12 02:10:31;;;;;;;;;;;;;;;18.32;66.55;100072.09;2100553;28;19931;-48
2022/11/12 02:11:32;;;;;;;;;;;;;;;18.30;66.50;100058.84;2096667;28;19928;-45
2022/11/12 02:14:00;;;;;;;;;;;;;;;18.29;66.48;100057.16;2092661;28;19924;-45
2022/11/12 02:15:00;;;;;;;;;;;;;;;18.30;66.34;100063.34;2089823;28;19967;-48
2022/11/12 02:16:02;;;;;;;;;;;;;;;18.29;66.45;100064.38;2096375;28;19924;-44
2022/11/12 02:17:03;;;;;;;;;;;;;;;18.26;66.43;100068.22;2093160;28;19951;-46
2022/11/12 02:18:05;;;;;;;;;;;;;;;18.27;66.49;100063.69;2092173;28;19930;-47
2022/11/12 02:19:06;;;;;;;;;;;;;;;18.24;66.62;100072.09;2093779;28;19928;-45
2022/11/12 02:20:09;;;;;;;;;;;;;;;18.24;66.47;100072.09;2090504;28;20485;-47
2022/11/12 02:21:09;;;;;;;;;;;;;;;18.24;66.56;100072.09;2090619;28;19932;-46
2022/11/12 02:22:12;;;;;;;;;;;;;;;18.25;66.33;100068.41;2087468;28;20310;-48
2022/11/12 02:23:13;;;;;;;;;;;;;;;18.25;66.33;100068.41;2086360;28;20511;-47
2022/11/12 02:24:33;;;;;;;;;;;;;;;18.23;66.45;100067.72;2089358;28;19934;-47
2022/11/12 02:25:35;;;;;;;;;;;;;;;18.20;66.53;100068.06;2088197;28;19920;-45
2022/11/12 02:26:37;;;;;;;;;;;;;;;18.20;66.49;100070.75;2087601;28;19924;-48
2022/11/12 02:27:39;;;;;;;;;;;;;;;18.20;66.43;100071.59;2086567;28;20400;-44
2022/11/12 02:28:40;;;;;;;;;;;;;;;18.18;66.55;100078.97;2083655;28;20034;-45
2022/11/12 02:29:45;;;;;;;;;;;;;;;18.20;66.51;100073.44;2085926;28;20293;-44
2022/11/12 02:30:46;;;;;;;;;;;;;;;18.18;66.61;100076.28;2084306;28;20022;-46
2022/11/12 02:31:48;;;;;;;;;;;;;;;18.20;66.61;100070.75;2089137;28;19924;-47
2022/11/12 02:32:48;;;;;;;;;;;;;;;18.20;66.62;100078.81;2085372;28;19920;-46
2022/11/12 02:33:50;;;;;;;;;;;;;;;18.17;66.72;100069.22;2087008;28;19926;-44
2022/11/12 02:34:50;;;;;;;;;;;;;;;18.19;66.64;100072.59;2090780;28;20267;-44
2022/11/12 02:35:52;;;;;;;;;;;;;;;18.20;66.67;100073.44;2089490;28;19928;-47
2022/11/12 02:36:52;;;;;;;;;;;;;;;18.18;66.71;100076.28;2087378;28;20596;-45
2022/11/12 02:37:55;;;;;;;;;;;;;;;18.19;66.34;100067.22;2089495;28;19924;-46
2022/11/12 02:38:56;;;;;;;;;;;;;;;18.17;66.48;100073.78;2088355;28;19928;-50
2022/11/12 02:39:57;;;;;;;;;;;;;;;18.19;66.59;100066.38;2089282;28;19924;-46
2022/11/12 02:40:58;;;;;;;;;;;;;;;18.15;66.57;100071.25;2087834;28;19960;-44
2022/11/12 02:41:59;;;;;;;;;;;;;;;18.16;66.53;100064.00;2096591;28;20590;-48
2022/11/12 02:43:00;;;;;;;;;;;;;;;18.16;66.53;100064.00;2096139;28;20339;-46
2022/11/12 02:44:01;;;;;;;;;;;;;;;18.11;66.66;100069.03;2097540;28;19920;-45
2022/11/12 02:45:02;;;;;;;;;;;;;;;18.15;66.58;100060.50;2102627;27;19923;-45
2022/11/12 02:46:04;;;;;;;;;;;;;;;18.12;66.77;100058.16;2095363;27;20550;-46
2022/11/12 02:47:04;;;;;;;;;;;;;;;18.12;66.69;100060.00;2094321;28;19928;-45
2022/11/12 02:48:06;;;;;;;;;;;;;;;18.12;66.59;100060.00;2097389;27;19928;-46
2022/11/12 02:49:07;;;;;;;;;;;;;;;18.12;66.75;100058.16;2096927;27;19963;-46
2022/11/12 02:50:09;;;;;;;;;;;;;;;18.14;66.76;100058.00;2096022;27;19939;-46
2022/11/12 02:51:09;;;;;;;;;;;;;;;18.15;66.56;100065.03;2102668;28;19928;-46
2022/11/12 02:52:11;;;;;;;;;;;;;;;18.12;66.45;100065.38;2101516;28;19924;-45
2022/11/12 02:53:13;;;;;;;;;;;;;;;18.12;66.73;100066.19;2095168;28;19926;-48
2022/11/12 02:54:14;;;;;;;;;;;;;;;18.14;66.70;100063.38;2095510;28;19928;-46
2022/11/12 02:55:15;;;;;;;;;;;;;;;18.12;66.61;100068.06;2096795;27;19924;-48
2022/11/12 02:56:16;;;;;;;;;;;;;;;18.12;66.38;100060.84;2094847;28;19934;-47
2022/11/12 02:57:17;;;;;;;;;;;;;;;18.13;66.43;100057.13;2101739;27;19920;-46
2022/11/12 02:58:21;;;;;;;;;;;;;;;18.11;66.65;100052.94;2096355;27;19928;-46
2022/11/12 02:59:21;;;;;;;;;;;;;;;18.09;66.70;100051.25;2095098;28;20325;-47
2022/11/12 03:00:23;;;;;;;;;;;;;;;18.11;66.65;100051.09;2095313;27;19928;-47
2022/11/12 03:01:24;;;;;;;;;;;;;;;18.10;66.63;100041.34;2094279;27;19934;-45
2022/11/12 03:02:25;;;;;;;;;;;;;;;18.09;66.56;100051.25;2093355;27;19930;-46
2022/11/12 03:03:26;;;;;;;;;;;;;;;18.11;66.66;100053.78;2087471;28;20007;-45
2022/11/12 03:04:27;;;;;;;;;;;;;;;18.12;66.39;100043.88;2089923;28;19928;-49
2022/11/12 03:05:29;;;;;;;;;;;;;;;18.09;66.68;100050.44;2089472;28;19924;-45
2022/11/12 03:06:30;;;;;;;;;;;;;;;18.06;66.67;100046.22;2091802;28;20377;-47
2022/11/12 03:07:31;;;;;;;;;;;;;;;18.08;66.49;100043.38;2087298;28;19928;-45
2022/11/12 03:08:34;;;;;;;;;;;;;;;18.08;66.46;100044.22;2092909;28;19957;-44
2022/11/12 03:09:34;;;;;;;;;;;;;;;18.09;66.61;100043.22;2094081;27;20635;-44
2022/11/12 03:10:37;;;;;;;;;;;;;;;18.06;66.51;100040.03;2096137;27;19928;-46
2022/11/12 03:11:37;;;;;;;;;;;;;;;18.03;66.81;100043.88;2093925;28;19935;-48
2022/11/12 03:12:39;;;;;;;;;;;;;;;18.04;66.87;100039.34;2095862;28;20532;-47
2022/11/12 03:13:39;;;;;;;;;;;;;;;18.04;66.61;100044.72;2095738;28;20005;-49
2022/11/12 03:14:41;;;;;;;;;;;;;;;18.04;66.56;100037.47;2095050;28;20362;-46
2022/11/12 03:15:41;;;;;;;;;;;;;;;18.03;66.64;100041.19;2095790;27;22204;-52
2022/11/12 03:16:43;;;;;;;;;;;;;;;18.03;66.57;100040.34;2100959;28;19930;-47
2022/11/12 03:17:43;;;;;;;;;;;;;;;18.02;66.67;100031.44;2101785;28;20390;-51
2022/11/12 03:18:45;;;;;;;;;;;;;;;18.05;66.53;100036.50;2092860;28;19920;-48
2022/11/12 03:19:45;;;;;;;;;;;;;;;18.05;66.37;100038.31;2097799;28;19920;-49
2022/11/12 03:20:47;;;;;;;;;;;;;;;18.03;66.74;100030.44;2097794;28;19928;-46
2022/11/12 03:21:47;;;;;;;;;;;;;;;18.01;66.60;100031.63;2095466;28;20539;-48
2022/11/12 03:22:55;;;;;;;;;;;;;;;18.00;66.85;100028.09;2095956;28;19928;-47
2022/11/12 03:23:58;;;;;;;;;;;;;;;17.97;66.96;100025.75;2098173;28;19929;-50
2022/11/12 03:24:58;;;;;;;;;;;;;;;18.00;66.77;100025.41;2096310;28;19932;-51
2022/11/12 03:26:02;;;;;;;;;;;;;;;18.02;66.57;100034.13;2094321;28;19920;-51
2022/11/12 03:27:02;;;;;;;;;;;;;;;17.98;66.39;100027.41;2096776;28;20350;-50
2022/11/12 03:28:05;;;;;;;;;;;;;;;18.03;66.59;100035.81;2095374;28;19927;-47
2022/11/12 03:29:05;;;;;;;;;;;;;;;17.99;66.49;100025.56;2097617;28;20382;-50
2022/11/12 03:30:07;;;;;;;;;;;;;;;17.99;66.58;100023.72;2096274;28;19928;-45
2022/11/12 03:31:10;;;;;;;;;;;;;;;17.99;66.61;100023.72;2096694;28;19927;-47
2022/11/12 03:32:12;;;;;;;;;;;;;;;17.99;66.59;100022.88;2097143;28;19947;-48
2022/11/12 03:33:13;;;;;;;;;;;;;;;17.97;66.90;100031.13;2094150;28;20031;-48
2022/11/12 03:34:15;;;;;;;;;;;;;;;17.99;66.68;100029.09;2093791;28;20012;-51
2022/11/12 03:35:16;;;;;;;;;;;;;;;18.01;66.82;100028.94;2093928;28;19924;-46
2022/11/12 03:36:18;;;;;;;;;;;;;;;17.97;66.71;100025.75;2094603;28;19924;-50
2022/11/12 03:37:19;;;;;;;;;;;;;;;17.99;66.80;100022.88;2095121;28;20305;-47
2022/11/12 03:38:20;;;;;;;;;;;;;;;17.98;66.77;100019.38;2095539;28;20436;-49
2022/11/12 03:39:22;;;;;;;;;;;;;;;17.97;66.58;100023.06;2097469;28;19928;-48
2022/11/12 03:40:24;;;;;;;;;;;;;;;17.97;66.83;100024.88;2092627;28;19935;-49
2022/11/12 03:41:24;;;;;;;;;;;;;;;17.96;66.69;100018.69;2095005;28;19921;-47
2022/11/12 03:42:26;;;;;;;;;;;;;;;17.96;66.69;100020.53;2096537;28;19924;-47
2022/11/12 03:43:27;;;;;;;;;;;;;;;17.96;66.73;100026.72;2094945;28;20727;-47
2022/11/12 03:44:28;;;;;;;;;;;;;;;17.96;66.70;100023.22;2097023;28;19921;-50
2022/11/12 03:45:28;;;;;;;;;;;;;;;17.94;66.59;100020.72;2096296;28;19927;-48
2022/11/12 03:46:30;;;;;;;;;;;;;;;17.90;66.86;100016.66;2097976;28;20377;-48
2022/11/12 03:47:30;;;;;;;;;;;;;;;17.95;66.75;100021.53;2095691;28;19924;-45
2022/11/12 03:48:32;;;;;;;;;;;;;;;17.96;66.67;100018.69;2097649;28;20286;-49
2022/11/12 03:49:33;;;;;;;;;;;;;;;17.98;66.52;100013.16;2096815;28;19970;-46
2022/11/12 03:50:35;;;;;;;;;;;;;;;17.95;66.56;100014.31;2096651;28;20294;-48
2022/11/12 03:51:35;;;;;;;;;;;;;;;17.95;66.65;100008.97;2096333;28;19927;-51
2022/11/12 03:52:37;;;;;;;;;;;;;;;17.96;66.62;100010.63;2097108;28;19964;-49
2022/11/12 03:53:38;;;;;;;;;;;;;;;17.91;66.87;100015.66;2093758;28;19920;-46
2022/11/12 03:54:41;;;;;;;;;;;;;;;17.91;66.74;100012.97;2097783;28;19934;-48
2022/11/12 03:55:41;;;;;;;;;;;;;;;17.93;66.77;100015.50;2092019;28;19920;-47
2022/11/12 03:56:43;;;;;;;;;;;;;;;17.92;66.55;100006.59;2096569;28;19930;-49
2022/11/12 03:57:44;;;;;;;;;;;;;;;17.93;66.85;100013.66;2094340;28;20285;-47
2022/11/12 03:58:45;;;;;;;;;;;;;;;17.93;66.66;100013.66;2094158;28;19920;-51
2022/11/12 03:59:46;;;;;;;;;;;;;;;17.94;66.69;100025.22;2093308;28;19932;-45
2022/11/12 04:00:47;;;;;;;;;;;;;;;17.95;66.64;100021.53;2093063;28;19921;-51
2022/11/12 04:01:48;;;;;;;;;;;;;;;17.94;66.57;100020.72;2091970;28;19921;-47
2022/11/12 04:02:50;;;;;;;;;;;;;;;17.95;66.65;100016.19;2097296;28;19924;-49
2022/11/12 04:03:50;;;;;;;;;;;;;;;17.91;66.59;100018.34;2091768;28;20539;-45
2022/11/12 04:08:49;;;;;;;;;;;;;;;17.91;66.67;100015.66;2095002;28;19924;-50
2022/11/12 04:09:50;;;;;;;;;;;;;;;17.91;66.60;100010.28;2092569;28;19931;-52
2022/11/12 04:10:52;;;;;;;;;;;;;;;17.92;66.56;100008.47;2094626;28;20458;-49
2022/11/12 04:11:52;;;;;;;;;;;;;;;17.92;66.53;100005.78;2092369;28;19928;-48
2022/11/12 04:14:13;;;;;;;;;;;;;;;17.91;66.62;100007.59;2093213;28;19924;-47
2022/11/12 04:15:14;;;;;;;;;;;;;;;17.90;66.72;100002.41;2095321;28;20004;-50
2022/11/12 04:21:53;;;;;;;;;;;;;;;17.90;66.59;99992.50;2088339;28;20405;-53
2022/11/12 04:22:54;;;;;;;;;;;;;;;17.88;66.55;99997.19;2094595;28;20507;-47
2022/11/12 04:23:55;;;;;;;;;;;;;;;17.89;66.60;99998.91;2094113;28;19931;-48
2022/11/12 04:26:22;;;;;;;;;;;;;;;17.88;66.61;100001.72;2087660;28;19931;-49
2022/11/12 04:27:24;;;;;;;;;;;;;;;17.86;66.77;99988.50;2092492;28;19927;-46
2022/11/12 04:28:26;;;;;;;;;;;;;;;17.86;66.53;99993.84;2086771;28;19959;-46
2022/11/12 04:30:45;;;;;;;;;;;;;;;17.89;66.59;99998.06;2086788;28;19928;-49
2022/11/12 04:31:46;;;;;;;;;;;;;;;17.88;66.70;99991.81;2088474;28;19936;-47
2022/11/12 04:32:48;;;;;;;;;;;;;;;17.86;66.81;99992.00;2089505;28;19924;-50
2022/11/12 04:33:49;;;;;;;;;;;;;;;17.88;66.62;99994.50;2087575;28;19924;-50
2022/11/12 04:34:49;;;;;;;;;;;;;;;17.84;66.61;99993.19;2089586;28;20526;-48
2022/11/12 04:35:51;;;;;;;;;;;;;;;17.83;66.58;99986.97;2087920;28;20018;-51
2022/11/12 04:36:51;;;;;;;;;;;;;;;17.84;66.69;99988.66;2089924;28;19921;-50
2022/11/12 04:37:54;;;;;;;;;;;;;;;17.85;66.76;99992.16;2087395;28;19927;-47
2022/11/12 04:38:54;;;;;;;;;;;;;;;17.84;66.65;99993.19;2091695;28;20400;-46
2022/11/12 04:44:58;;;;;;;;;;;;;;;17.83;66.58;99997.72;2089235;28;20058;-47
2022/11/12 04:45:15;;;;;;;;;;;;;;;17.84;66.57;99977.91;2094375;28;19927;-45
2022/11/12 04:46:15;;;;;;;;;;;;;;;17.81;66.52;99977.41;2093515;28;19927;-46
2022/11/12 04:47:16;;;;;;;;;;;;;;;17.81;66.77;99972.03;2094161;28;20324;-46
2022/11/12 04:48:17;;;;;;;;;;;;;;;17.82;66.81;99981.75;2095554;27;19927;-46
2022/11/12 04:49:18;;;;;;;;;;;;;;;17.82;66.50;99969.19;2095915;28;19924;-46
2022/11/12 04:50:19;;;;;;;;;;;;;;;17.81;66.59;99974.72;2095710;28;20018;-47
2022/11/12 04:52:40;;;;;;;;;;;;;;;17.81;66.87;99980.94;2096560;27;19924;-45
2022/11/12 04:53:40;;;;;;;;;;;;;;;17.81;66.76;99977.41;2096718;28;20277;-46
2022/11/12 04:54:42;;;;;;;;;;;;;;;17.81;66.70;99982.78;2099768;27;19923;-47
2022/11/12 04:55:44;;;;;;;;;;;;;;;17.81;66.53;99978.25;2096478;28;19929;-47
2022/11/12 04:56:45;;;;;;;;;;;;;;;17.81;66.73;99982.78;2093739;27;20378;-45
2022/11/12 04:57:47;;;;;;;;;;;;;;;17.80;66.70;99981.94;2096220;28;19987;-46
2022/11/12 04:58:47;;;;;;;;;;;;;;;17.80;66.87;99973.88;2096772;27;20361;-46
2022/11/12 04:59:49;;;;;;;;;;;;;;;17.79;66.77;99966.00;2095563;27;19924;-46
2022/11/12 05:00:50;;;;;;;;;;;;;;;17.77;66.58;99965.28;2096546;28;20404;-45
2022/11/12 05:01:51;;;;;;;;;;;;;;;17.78;66.82;99966.97;2095679;27;19920;-46
2022/11/12 05:02:52;;;;;;;;;;;;;;;17.80;66.64;99965.84;2097164;28;19927;-46
2022/11/12 05:03:53;;;;;;;;;;;;;;;17.78;66.79;99966.97;2095421;28;20273;-45
2022/11/12 05:04:54;;;;;;;;;;;;;;;17.73;66.81;99959.41;2097091;27;19935;-48
2022/11/12 05:06:00;;;;;;;;;;;;;;;17.79;66.63;99963.31;2096880;28;19927;-46
2022/11/12 05:07:01;;;;;;;;;;;;;;;17.82;66.44;99961.13;2096122;28;20543;-46
2022/11/12 05:08:03;;;;;;;;;;;;;;;17.85;66.46;99963.47;2095747;28;19924;-45
2022/11/12 05:09:03;;;;;;;;;;;;;;;17.88;66.46;99964.16;2097747;27;19928;-46
2022/11/12 05:10:05;;;;;;;;;;;;;;;17.92;66.35;99970.88;2098845;28;19928;-46
2022/11/12 05:11:05;;;;;;;;;;;;;;;17.94;66.08;99961.66;2094602;27;19920;-45
2022/11/12 05:12:08;;;;;;;;;;;;;;;17.99;65.76;99961.97;2099233;28;19949;-44
2022/11/12 05:13:09;;;;;;;;;;;;;;;18.00;65.89;99955.63;2100687;28;19935;-46
2022/11/12 05:14:10;;;;;;;;;;;;;;;18.02;65.82;99955.44;2098479;28;19928;-46
2022/11/12 05:15:11;;;;;;;;;;;;;;;18.06;65.91;99952.25;2098688;28;19927;-48
2022/11/12 05:16:12;;;;;;;;;;;;;;;18.09;65.78;99959.97;2098394;28;19930;-45
2022/11/12 05:17:13;;;;;;;;;;;;;;;18.11;65.62;99953.59;2095434;28;20266;-46
2022/11/12 05:18:14;;;;;;;;;;;;;;;18.12;65.80;99958.78;2095236;28;19938;-46
2022/11/12 05:19:15;;;;;;;;;;;;;;;18.15;65.58;99958.47;2097100;28;19920;-47
2022/11/12 05:20:17;;;;;;;;;;;;;;;18.18;65.57;99954.59;2093675;28;20297;-46
2022/11/12 05:22:38;;;;;;;;;;;;;;;18.22;65.45;99948.72;2096822;28;19924;-47
2022/11/12 05:23:38;;;;;;;;;;;;;;;18.21;65.43;99949.72;2096746;28;19931;-46
2022/11/12 05:24:40;;;;;;;;;;;;;;;18.22;65.57;99954.09;2099582;28;19927;-45
2022/11/12 05:25:41;;;;;;;;;;;;;;;18.23;65.60;99946.88;2099785;28;19920;-46
2022/11/12 05:26:42;;;;;;;;;;;;;;;18.23;65.61;99952.25;2098015;28;20543;-47
2022/11/12 05:27:46;;;;;;;;;;;;;;;18.25;65.56;99951.06;2097680;28;19931;-47
2022/11/12 05:28:47;;;;;;;;;;;;;;;18.27;65.46;99946.34;2098221;28;21896;-45
2022/11/12 05:29:48;;;;;;;;;;;;;;;18.29;65.38;99948.88;2097201;28;19920;-45
2022/11/12 05:30:49;;;;;;;;;;;;;;;18.27;65.57;99951.72;2097976;28;19924;-46
2022/11/12 05:31:49;;;;;;;;;;;;;;;18.31;65.51;99946.88;2097695;28;19924;-46
2022/11/12 05:32:51;;;;;;;;;;;;;;;18.33;65.34;99944.00;2096270;28;19924;-49
2022/11/12 05:33:51;;;;;;;;;;;;;;;18.34;65.45;99946.53;2097730;28;20405;-45
2022/11/12 05:34:53;;;;;;;;;;;;;;;18.35;65.13;99950.88;2096843;28;19924;-45
2022/11/12 05:35:54;;;;;;;;;;;;;;;18.38;65.34;99950.53;2096751;28;19924;-45
2022/11/12 05:36:56;;;;;;;;;;;;;;;18.38;65.35;99950.53;2097808;28;19935;-45
2022/11/12 05:37:57;;;;;;;;;;;;;;;18.36;65.33;99949.91;2099776;28;19923;-48
2022/11/12 05:38:58;;;;;;;;;;;;;;;18.37;65.23;99951.56;2098488;28;20467;-46